Impacts METAR Board
IDs:

KSFO - San Francisco Intl, CA, US

Updated at: 2300 UTC 19 Jan 2019
Potential Impact None Slight Moderate High
Time 19/11Z 19/12Z 19/13Z 19/14Z 19/15Z 19/16Z 19/17Z 19/18Z 19/19Z 19/20Z 19/21Z 19/22Z 19/23Z
Temp60 59 60 59 58 57 58 58 59 60 61 62 65
Dewpt49 49 46 47 49 49 50 50 51 51 51 50 50
Altim30.35 30.35 30.34 30.35 30.35 30.36 30.37 30.37 30.36 30.33 30.30 30.28 30.26
VIS10 10 10 10 10 10 10 10 10 10 10 10 10
CIG28 27 25 25 29 29 26 70 200 200 200 60 60
CoverOVCOVCOVCOVCBKNBKNBKNBKNBKNBKNBKNBKNBKN
FltCatMVFRMVFRMVFRMVFRMVFRMVFRMVFRVFRVFRVFRVFRVFRVFR
WX--------------------------
WDir0005003030505020101020
WSpd0 0 0 3 0 4 3 3 4 5 5 3 3
WGst-- -- -- -- -- -- -- -- -- -- -- -- --
Raw hourly METARs
KSFO 191056Z 00000KT 10SM OVC028 16/09 A3035 RMK AO2 SLP278 T01560094 $
KSFO 191156Z 00000KT 10SM OVC027 15/09 A3035 RMK AO2 SLP276 T01500094 56008 $
KSFO 191256Z 00000KT 10SM FEW020 OVC025 16/08 A3034 RMK AO2 SLP274 T01560078 $
KSFO 191356Z 05003KT 10SM FEW022 OVC025 15/09 A3035 RMK AO2 SLP275 T01500083 $
KSFO 191456Z 00000KT 10SM FEW023 BKN029 14/09 A3035 RMK AO2 SLP275 T01440094 56000 $
KSFO 191556Z 03004KT 10SM FEW024 BKN029 14/09 A3036 RMK AO2 SLP279 T01390094 $
KSFO 191656Z 03003KT 10SM FEW024 BKN026 BKN070 14/10 A3037 RMK AO2 SLP283 T01440100 $
KSFO 191756Z 05003KT 10SM FEW024 SCT026 BKN070 14/10 A3037 RMK AO2 SLP283 T01440100 10156 20139 51007 $
KSFO 191856Z 05004KT 10SM FEW024 SCT070 BKN200 15/11 A3036 RMK AO2 SLP280 T01500106 $
KSFO 191956Z 02005KT 10SM FEW038 BKN200 16/11 A3033 RMK AO2 SLP271 T01560106 $
KSFO 192056Z 01005KT 10SM FEW038 SCT160 BKN200 16/11 A3030 RMK AO2 SLP262 T01610106 58021 $
KSFO 192156Z 01003KT 10SM FEW038 BKN060 BKN200 17/10 A3028 RMK AO2 SLP252 T01670100 $
KSFO 192256Z COR 02003KT 10SM FEW035 BKN060 BKN200 18/10 A3026 RMK AO2 SLP247 T01830100 $



Page loaded:  23:08 UTC  |   03:08 PM Pacific  |   04:08 PM Mountain  |   05:08 PM Central  |   06:08 PM Eastern

 

ADVISORIES

FORECASTS

FORECASTS

OBSERVATIONS

USER TOOLS

ABOUT US